createdAt,value
2018-06-22T00:01:45.549Z,44.50
2018-06-22T00:03:48.213Z,43.20
2018-06-22T00:05:50.928Z,45.50
2018-06-22T00:07:53.765Z,45.53
2018-06-22T00:09:56.428Z,44.23
2018-06-22T00:11:59.172Z,46.33
2018-06-22T00:14:01.900Z,43.63
2018-06-22T00:16:04.664Z,43.80
2018-06-22T00:18:07.811Z,47.07
2018-06-22T00:20:10.619Z,44.67
2018-06-22T00:22:13.175Z,44.43
2018-06-22T00:24:15.854Z,41.50
2018-06-22T00:26:18.346Z,43.87
2018-06-22T00:28:22.578Z,44.83
2018-06-22T00:30:25.377Z,41.13
2018-06-22T00:32:28.050Z,42.53
2018-06-22T00:34:30.855Z,41.03
2018-06-22T00:36:33.676Z,41.07
2018-06-22T00:38:36.369Z,39.60
2018-06-22T00:40:38.923Z,42.03
2018-06-22T00:42:41.917Z,44.30
2018-06-22T00:44:44.729Z,44.23
2018-06-22T00:46:47.276Z,44.47
2018-06-22T00:48:51.012Z,43.60
2018-06-22T00:50:53.782Z,43.03
2018-06-22T00:52:56.768Z,40.23
2018-06-22T00:55:00.504Z,42.00
2018-06-22T00:57:05.025Z,40.50
2018-06-22T00:59:08.156Z,41.00
2018-06-22T01:01:11.010Z,40.73
2018-06-22T01:03:13.781Z,39.30
2018-06-22T01:05:16.493Z,38.73
2018-06-22T01:07:19.176Z,35.60
2018-06-22T01:09:22.379Z,34.97
2018-06-22T01:11:25.215Z,33.00
2018-06-22T01:13:28.163Z,31.87
2018-06-22T01:15:30.922Z,32.87
2018-06-22T01:17:34.125Z,31.87
2018-06-22T01:19:37.233Z,29.43
2018-06-22T01:21:40.417Z,28.60
2018-06-22T01:23:44.243Z,29.43
2018-06-22T01:25:47.052Z,31.03
2018-06-22T01:27:50.074Z,28.27
2018-06-22T01:29:53.070Z,27.33
2018-06-22T01:31:56.089Z,27.20
2018-06-22T01:33:58.857Z,26.97
2018-06-22T01:36:01.683Z,26.87
2018-06-22T01:38:04.466Z,25.50
2018-06-22T01:40:07.651Z,25.77
2018-06-22T01:42:10.468Z,21.67
2018-06-22T01:44:13.238Z,22.23
2018-06-22T01:46:16.574Z,21.53
2018-06-22T01:48:19.407Z,21.30
2018-06-22T01:50:22.266Z,20.63
2018-06-22T01:52:25.236Z,21.37
2018-06-22T01:54:28.176Z,20.10
2018-06-22T01:56:30.855Z,18.40
2018-06-22T01:58:34.143Z,18.67
2018-06-22T02:00:36.813Z,18.73
2018-06-22T02:02:39.590Z,19.53
2018-06-22T02:04:42.597Z,96.07
2018-06-22T02:06:45.751Z,165.43
2018-06-22T02:08:48.572Z,70.50
2018-06-22T02:10:51.433Z,56.00
2018-06-22T02:12:54.066Z,48.97
2018-06-22T02:14:57.122Z,42.00
2018-06-22T02:17:00.100Z,40.20
2018-06-22T02:19:03.130Z,41.77
2018-06-22T02:21:05.730Z,38.50
2018-06-22T02:23:08.685Z,37.90
2018-06-22T02:25:11.431Z,34.40
2018-06-22T02:27:14.380Z,33.17
2018-06-22T02:29:17.170Z,33.07
2018-06-22T02:31:19.984Z,32.80
2018-06-22T02:33:23.032Z,31.17
2018-06-22T02:35:25.813Z,29.87
2018-06-22T02:37:28.959Z,30.53
2018-06-22T02:39:31.931Z,30.07
2018-06-22T02:41:34.685Z,28.63
2018-06-22T02:43:37.770Z,28.20
2018-06-22T02:45:40.676Z,27.50
2018-06-22T02:47:43.324Z,25.17
2018-06-22T02:49:46.159Z,24.43
2018-06-22T02:51:49.273Z,23.40
2018-06-22T02:53:51.903Z,22.57
2018-06-22T02:55:54.483Z,21.20
2018-06-22T02:57:57.427Z,21.17
2018-06-22T03:00:00.067Z,22.37
2018-06-22T03:02:03.059Z,21.50
2018-06-22T03:04:06.310Z,20.07
2018-06-22T03:06:09.590Z,19.97
2018-06-22T03:08:14.041Z,19.53
2018-06-22T03:10:16.871Z,18.03
2018-06-22T03:12:19.741Z,20.10
2018-06-22T03:14:22.758Z,19.17
2018-06-22T03:16:25.585Z,18.13
2018-06-22T03:18:28.776Z,19.77
2018-06-22T03:20:31.404Z,17.90
2018-06-22T03:22:34.118Z,18.97
2018-06-22T03:24:36.763Z,17.20
2018-06-22T03:26:40.608Z,18.30
2018-06-22T03:28:43.449Z,18.57
2018-06-22T03:30:46.079Z,15.23
2018-06-22T03:32:48.795Z,15.70
2018-06-22T03:34:51.771Z,17.13
2018-06-22T03:36:56.010Z,18.17
2018-06-22T03:38:58.793Z,16.23
2018-06-22T03:41:01.454Z,17.77
2018-06-22T03:43:04.248Z,16.77
2018-06-22T03:45:07.211Z,17.30
2018-06-22T03:47:09.817Z,16.17
2018-06-22T03:49:12.427Z,15.37
2018-06-22T03:51:15.403Z,14.50
2018-06-22T03:53:18.243Z,16.00
2018-06-22T03:55:20.815Z,16.17
2018-06-22T03:57:23.442Z,13.60
2018-06-22T03:59:26.298Z,12.80
2018-06-22T04:01:29.506Z,11.83
2018-06-22T04:03:32.441Z,12.23
2018-06-22T04:05:35.029Z,11.43
2018-06-22T04:07:37.666Z,11.47
2018-06-22T04:09:40.487Z,11.43
2018-06-22T04:11:43.132Z,13.00
2018-06-22T04:13:45.904Z,11.47
2018-06-22T04:15:48.803Z,13.00
2018-06-22T04:17:51.478Z,10.73
2018-06-22T04:19:54.036Z,10.53
2018-06-22T04:21:57.557Z,11.20
2018-06-22T04:24:00.509Z,11.13
2018-06-22T04:26:03.413Z,10.70
2018-06-22T04:28:06.280Z,11.53
2018-06-22T04:30:10.159Z,10.70
2018-06-22T04:32:12.911Z,10.60
2018-06-22T04:34:16.123Z,10.70
2018-06-22T04:36:19.862Z,11.13
2018-06-22T04:38:22.658Z,11.97
2018-06-22T04:40:25.142Z,11.90
2018-06-22T04:42:27.901Z,10.93
2018-06-22T04:44:30.472Z,11.60
2018-06-22T04:46:33.052Z,11.40
2018-06-22T04:48:35.837Z,11.53
2018-06-22T04:50:38.705Z,11.30
2018-06-22T04:52:41.380Z,10.50
2018-06-22T04:54:43.934Z,10.33
2018-06-22T04:56:46.670Z,9.73
2018-06-22T04:58:49.432Z,8.93
2018-06-22T05:00:52.291Z,11.10
2018-06-22T05:02:55.247Z,10.33
2018-06-22T05:04:57.925Z,9.57
2018-06-22T05:07:00.592Z,10.33
2018-06-22T05:09:03.352Z,11.40
2018-06-22T05:11:06.122Z,10.30
2018-06-22T05:13:08.730Z,10.03
2018-06-22T05:15:11.319Z,9.43
2018-06-22T05:17:14.301Z,8.87
2018-06-22T05:19:17.129Z,9.03
2018-06-22T05:21:20.029Z,10.33
2018-06-22T05:23:22.629Z,11.03
2018-06-22T05:25:25.350Z,10.60
2018-06-22T05:27:28.275Z,11.03
2018-06-22T05:29:31.197Z,9.97
2018-06-22T05:31:33.755Z,10.10
2018-06-22T05:33:36.480Z,8.67
2018-06-22T05:35:39.361Z,8.37
2018-06-22T05:37:41.902Z,9.30
2018-06-22T05:39:44.669Z,9.63
2018-06-22T05:41:47.702Z,10.30
2018-06-22T05:43:50.553Z,8.60
2018-06-22T05:45:53.483Z,9.43
2018-06-22T05:47:56.488Z,9.10
2018-06-22T05:49:59.264Z,9.13
2018-06-22T05:52:02.009Z,10.70
2018-06-22T05:54:04.806Z,10.47
2018-06-22T05:56:07.665Z,9.30
2018-06-22T05:58:10.634Z,9.63
2018-06-22T06:00:13.460Z,10.07
2018-06-22T06:02:16.337Z,10.10
2018-06-22T06:04:19.124Z,11.70
2018-06-22T06:06:21.726Z,10.03
2018-06-22T06:08:24.308Z,9.90
2018-06-22T06:10:26.904Z,9.80
2018-06-22T06:12:30.479Z,10.03
2018-06-22T06:14:33.323Z,10.90
2018-06-22T06:16:36.056Z,10.60
2018-06-22T06:18:38.850Z,9.43
2018-06-22T06:20:41.580Z,8.70
2018-06-22T06:22:44.504Z,11.03
2018-06-22T06:24:47.256Z,11.93
2018-06-22T06:26:50.266Z,10.50
2018-06-22T06:28:52.908Z,11.00
2018-06-22T06:30:55.783Z,10.27
2018-06-22T06:32:58.564Z,9.23
2018-06-22T06:35:01.615Z,10.37
2018-06-22T06:37:04.317Z,10.03
2018-06-22T06:39:07.306Z,11.00
2018-06-22T06:41:10.141Z,9.10
2018-06-22T06:43:12.760Z,10.80
2018-06-22T06:45:15.515Z,9.33
2018-06-22T06:47:18.116Z,8.60
2018-06-22T06:49:20.668Z,9.13
2018-06-22T06:51:23.217Z,10.50
2018-06-22T06:53:25.848Z,9.40
2018-06-22T06:55:28.428Z,13.23
2018-06-22T06:57:31.155Z,10.10
2018-06-22T06:59:34.071Z,10.47
2018-06-22T07:01:36.776Z,8.87
2018-06-22T07:03:39.410Z,9.77
2018-06-22T07:05:42.124Z,9.27
2018-06-22T07:07:44.835Z,10.47
2018-06-22T07:09:47.528Z,9.80
2018-06-22T07:11:50.054Z,9.97
2018-06-22T07:13:52.595Z,9.67
2018-06-22T07:15:55.296Z,9.77
2018-06-22T07:17:57.953Z,9.43
2018-06-22T07:20:00.620Z,9.70
2018-06-22T07:22:03.295Z,9.80
2018-06-22T07:24:05.846Z,9.73
2018-06-22T07:26:08.432Z,10.40
2018-06-22T07:28:11.072Z,10.97
2018-06-22T07:30:14.830Z,10.03
2018-06-22T07:32:17.394Z,9.07
2018-06-22T07:34:20.072Z,8.97
2018-06-22T07:36:23.820Z,8.97
2018-06-22T07:38:26.524Z,9.80
2018-06-22T07:40:29.111Z,9.60
2018-06-22T07:42:31.677Z,10.50
2018-06-22T07:44:34.379Z,10.63
2018-06-22T07:46:37.048Z,10.37
2018-06-22T07:48:39.668Z,9.67
2018-06-22T07:50:42.764Z,10.00
2018-06-22T07:52:45.331Z,9.40
2018-06-22T07:54:48.039Z,9.97
2018-06-22T07:56:50.814Z,10.07
2018-06-22T07:58:53.451Z,9.57
2018-06-22T08:00:56.166Z,9.80
2018-06-22T08:02:58.731Z,10.33
2018-06-22T08:05:01.418Z,11.17
2018-06-22T08:07:04.265Z,9.73
2018-06-22T08:09:06.912Z,11.07
2018-06-22T08:11:09.404Z,10.23
2018-06-22T08:13:11.988Z,9.30
2018-06-22T08:15:14.699Z,9.47
2018-06-22T08:17:17.215Z,10.03
2018-06-22T08:19:19.754Z,10.00
2018-06-22T08:21:22.406Z,10.47
2018-06-22T08:23:25.003Z,10.20
2018-06-22T08:25:27.708Z,9.03
2018-06-22T08:27:30.267Z,9.17
2018-06-22T08:29:33.054Z,9.20
2018-06-22T08:31:35.828Z,9.50
2018-06-22T08:33:38.482Z,10.13
2018-06-22T08:35:41.281Z,11.27
2018-06-22T08:37:44.168Z,9.77
2018-06-22T08:39:46.807Z,9.23
2018-06-22T08:41:49.531Z,9.53
2018-06-22T08:43:52.256Z,11.07
2018-06-22T08:45:54.923Z,9.57
2018-06-22T08:47:57.793Z,9.60
2018-06-22T08:50:00.574Z,9.90
2018-06-22T08:52:03.181Z,8.73
2018-06-22T08:54:05.903Z,10.60
2018-06-22T08:56:08.762Z,10.10
2018-06-22T08:58:11.330Z,9.23
2018-06-22T09:00:13.966Z,9.50
2018-06-22T09:02:16.694Z,9.50
2018-06-22T09:04:19.225Z,9.93
2018-06-22T09:06:21.810Z,10.43
2018-06-22T09:08:24.523Z,9.87
2018-06-22T09:10:27.241Z,10.10
2018-06-22T09:12:29.986Z,11.93
2018-06-22T09:14:32.781Z,9.97
2018-06-22T09:16:35.652Z,11.30
2018-06-22T09:18:38.236Z,11.70
2018-06-22T09:20:40.988Z,8.87
2018-06-22T09:22:43.583Z,9.67
2018-06-22T09:24:47.882Z,10.63
2018-06-22T09:26:50.615Z,10.33
2018-06-22T09:28:54.435Z,10.20
2018-06-22T09:30:57.083Z,9.57
2018-06-22T09:32:59.666Z,10.47
2018-06-22T09:35:02.322Z,11.60
2018-06-22T09:37:05.000Z,10.60
2018-06-22T09:39:08.277Z,9.40
2018-06-22T09:41:11.037Z,9.83
2018-06-22T09:43:13.710Z,9.10
2018-06-22T09:45:16.229Z,10.77
2018-06-22T09:47:18.973Z,10.93
2018-06-22T09:49:21.660Z,10.77
2018-06-22T09:51:24.603Z,8.53
2018-06-22T09:53:27.457Z,9.13
2018-06-22T09:55:30.153Z,9.40
2018-06-22T09:57:32.836Z,10.40
2018-06-22T09:59:35.739Z,9.50
2018-06-22T10:01:38.459Z,9.63
2018-06-22T10:03:41.102Z,9.37
2018-06-22T10:05:43.820Z,9.57
2018-06-22T10:07:46.468Z,9.67
2018-06-22T10:09:49.976Z,9.83
2018-06-22T10:11:52.769Z,10.87
2018-06-22T10:13:55.374Z,22.17
2018-06-22T10:15:58.144Z,63.70
2018-06-22T10:18:00.941Z,23.73
2018-06-22T10:20:03.530Z,21.73
2018-06-22T10:22:06.137Z,18.90
2018-06-22T10:24:08.754Z,16.60
2018-06-22T10:26:11.347Z,14.73
2018-06-22T10:28:14.048Z,15.17
2018-06-22T10:30:16.793Z,11.43
2018-06-22T10:32:20.445Z,13.33
2018-06-22T10:34:23.176Z,14.10
2018-06-22T10:39:30.227Z,13.50
2018-06-22T10:41:32.937Z,14.33
2018-06-22T10:43:35.617Z,12.80
2018-06-22T10:45:38.218Z,10.83
2018-06-22T10:47:40.796Z,10.43
2018-06-22T10:49:43.573Z,12.43
2018-06-22T10:51:46.510Z,11.07
2018-06-22T10:53:49.992Z,10.30
2018-06-22T10:55:53.031Z,11.47
2018-06-22T10:57:55.709Z,9.10
2018-06-22T10:59:58.289Z,9.83
2018-06-22T11:02:01.007Z,15.20
2018-06-22T11:04:03.941Z,17.20
2018-06-22T11:06:07.082Z,12.00
2018-06-22T11:08:09.942Z,12.60
2018-06-22T11:10:12.529Z,12.27
2018-06-22T11:12:15.147Z,13.53
2018-06-22T11:14:17.875Z,10.97
2018-06-22T11:16:20.745Z,10.57
2018-06-22T11:18:23.466Z,11.10
2018-06-22T11:20:26.382Z,10.67
2018-06-22T11:22:29.464Z,11.03
2018-06-22T11:24:33.030Z,10.47
2018-06-22T11:26:35.898Z,9.63
2018-06-22T11:28:38.494Z,10.33
2018-06-22T11:30:41.039Z,9.60
2018-06-22T11:32:43.803Z,10.17
2018-06-22T11:34:46.473Z,13.33
2018-06-22T11:36:50.223Z,10.97
2018-06-22T11:38:52.820Z,9.87
2018-06-22T11:40:55.453Z,10.30
2018-06-22T11:42:58.116Z,9.60
2018-06-22T11:45:00.616Z,9.97
2018-06-22T11:47:03.233Z,11.07
2018-06-22T11:49:05.936Z,10.30
2018-06-22T11:51:08.901Z,15.07
2018-06-22T11:53:11.493Z,42.37
2018-06-22T11:55:14.215Z,47.87
2018-06-22T11:57:16.755Z,34.03
2018-06-22T11:59:19.354Z,39.60
2018-06-22T12:01:22.106Z,35.40
2018-06-22T12:03:24.956Z,25.87
2018-06-22T12:05:27.629Z,25.17
2018-06-22T12:09:37.841Z,43.37
2018-06-22T12:11:40.760Z,40.83
2018-06-22T12:13:43.683Z,33.50
2018-06-22T12:15:46.756Z,31.87
2018-06-22T12:17:49.918Z,28.97
2018-06-22T12:19:52.676Z,30.20
2018-06-22T12:21:55.375Z,24.23
2018-06-22T12:23:58.207Z,29.90
2018-06-22T12:26:01.033Z,22.53
2018-06-22T12:28:03.874Z,23.80
2018-06-22T12:30:06.687Z,28.00
2018-06-22T12:32:09.520Z,29.33
2018-06-22T12:34:12.741Z,24.53
2018-06-22T12:36:15.593Z,24.57
2018-06-22T12:38:18.827Z,27.03
2018-06-22T12:40:21.703Z,24.23
2018-06-22T12:42:24.589Z,24.60
2018-06-22T12:44:27.371Z,24.60
2018-06-22T12:46:30.480Z,23.77
2018-06-22T12:48:33.417Z,27.77
2018-06-22T12:50:36.130Z,24.67
2018-06-22T12:52:39.128Z,26.53
2018-06-22T12:54:42.129Z,26.03
2018-06-22T12:56:45.020Z,24.27
2018-06-22T12:58:47.810Z,26.23
2018-06-22T13:00:50.709Z,23.50
2018-06-22T13:02:54.544Z,26.10
2018-06-22T13:04:57.334Z,25.50
2018-06-22T13:07:00.067Z,25.20
2018-06-22T13:09:03.232Z,25.47
2018-06-22T13:11:06.071Z,27.63
2018-06-22T13:13:10.238Z,23.27
2018-06-22T13:15:12.861Z,26.83
2018-06-22T13:17:15.520Z,26.53
2018-06-22T13:19:18.406Z,27.40
2018-06-22T13:21:21.122Z,24.27
2018-06-22T13:23:23.884Z,22.57
2018-06-22T13:25:26.604Z,25.13
2018-06-22T13:27:29.256Z,25.20
2018-06-22T13:36:00.566Z,24.80
2018-06-22T13:38:03.463Z,23.00
2018-06-22T13:40:06.163Z,23.87
2018-06-22T13:42:09.104Z,32.70
2018-06-22T13:44:11.651Z,22.63
2018-06-22T13:46:14.935Z,22.93
2018-06-22T13:48:17.808Z,25.27
2018-06-22T13:50:20.466Z,22.53
2018-06-22T13:52:23.318Z,22.70
2018-06-22T13:54:25.909Z,22.20
2018-06-22T13:56:29.024Z,21.33
2018-06-22T13:58:33.975Z,24.63
2018-06-22T14:00:36.923Z,19.43
2018-06-22T14:07:19.532Z,28.60
2018-06-22T14:09:22.782Z,24.35
2018-06-22T14:11:25.571Z,22.20
2018-06-22T14:13:29.733Z,19.93
2018-06-22T14:15:32.649Z,22.53
2018-06-22T14:17:35.248Z,20.83
2018-06-22T14:19:37.860Z,21.97
2018-06-22T14:21:40.667Z,21.53
2018-06-22T14:27:41.779Z,19.37
2018-06-22T14:29:44.566Z,20.60
2018-06-22T14:31:47.236Z,20.20
2018-06-22T14:33:50.172Z,20.13
2018-06-22T14:35:53.125Z,21.10
2018-06-22T14:37:55.910Z,20.60
2018-06-22T14:39:58.839Z,20.32
2018-06-22T14:42:01.780Z,20.67
2018-06-22T14:44:04.606Z,19.67
2018-06-22T14:46:07.381Z,20.07
2018-06-22T14:48:10.332Z,21.57
2018-06-22T14:50:13.211Z,22.97
2018-06-22T14:52:15.927Z,23.23
2018-06-22T14:54:18.775Z,20.93
2018-06-22T14:56:21.522Z,34.97
2018-06-22T14:58:24.304Z,38.63
2018-06-22T15:00:27.218Z,41.70
2018-06-22T15:02:31.131Z,53.87
2018-06-22T15:04:33.909Z,47.17
2018-06-22T15:06:36.889Z,57.73
2018-06-22T15:08:39.629Z,51.23
2018-06-22T15:10:42.670Z,56.03
2018-06-22T15:12:45.701Z,64.33
2018-06-22T15:14:48.368Z,52.33
2018-06-22T15:16:51.593Z,52.13
2018-06-22T15:18:54.764Z,47.60
2018-06-22T15:20:57.785Z,52.80
2018-06-22T15:25:31.304Z,52.75
2018-06-22T15:27:34.688Z,54.80
2018-06-22T15:29:37.545Z,59.07
2018-06-22T15:31:40.664Z,47.67
2018-06-22T15:33:43.467Z,51.03
2018-06-22T15:35:48.189Z,55.03
2018-06-22T15:37:51.227Z,49.00
2018-06-22T15:39:53.905Z,46.87
2018-06-22T15:41:56.596Z,45.00
2018-06-22T15:43:59.211Z,44.87
2018-06-22T15:46:03.484Z,46.63
2018-06-22T15:48:06.221Z,44.20
2018-06-22T15:50:09.265Z,44.60
2018-06-22T15:52:11.885Z,47.43
2018-06-22T15:54:14.762Z,44.97
2018-06-22T15:56:17.487Z,49.50
2018-06-22T15:58:20.390Z,45.17
2018-06-22T16:00:23.044Z,48.60
2018-06-22T16:02:25.948Z,44.70
2018-06-22T16:04:29.108Z,44.07
2018-06-22T16:06:32.356Z,49.57
2018-06-22T16:08:35.362Z,42.43
2018-06-22T16:10:38.557Z,38.47
2018-06-22T16:12:41.348Z,39.43
2018-06-22T16:14:44.429Z,40.37
2018-06-22T16:16:47.013Z,45.00
2018-06-22T16:18:49.847Z,44.77
2018-06-22T16:20:52.518Z,40.30
2018-06-22T16:22:54.992Z,40.63
2018-06-22T16:24:58.100Z,40.03
2018-06-22T16:27:01.145Z,39.23
2018-06-22T16:29:04.290Z,38.73
2018-06-22T16:31:07.121Z,44.77
2018-06-22T16:33:10.000Z,38.37
2018-06-22T16:35:12.621Z,40.83
2018-06-22T16:37:15.947Z,41.97
2018-06-22T16:39:18.724Z,39.93
2018-06-22T16:41:21.488Z,37.67
2018-06-22T16:43:24.416Z,41.70
2018-06-22T16:45:27.193Z,39.07
2018-06-22T16:47:29.970Z,40.07
2018-06-22T16:49:33.105Z,37.90
2018-06-22T16:51:36.577Z,37.17
2018-06-22T16:53:39.776Z,37.37
2018-06-22T17:18:32.689Z,32.77
2018-06-22T17:20:35.934Z,38.80
2018-06-22T17:22:38.496Z,36.67
2018-06-22T17:24:41.748Z,35.43
2018-06-22T17:26:45.341Z,38.40
2018-06-22T17:28:47.739Z,37.90
2018-06-22T17:30:51.874Z,34.57
2018-06-22T17:32:55.135Z,35.67
2018-06-22T17:34:57.923Z,34.00
2018-06-22T17:37:00.750Z,34.30
2018-06-22T17:39:03.754Z,33.83
2018-06-22T17:41:06.594Z,39.90
2018-06-22T17:43:09.619Z,36.60
2018-06-22T17:45:12.562Z,39.93
2018-06-22T17:47:16.031Z,34.90
2018-06-22T17:49:18.669Z,34.90
2018-06-22T17:51:21.743Z,34.40
2018-06-22T17:53:24.604Z,35.67
2018-06-22T17:55:27.137Z,33.00
2018-06-22T17:57:30.011Z,33.80
2018-06-22T17:59:32.886Z,32.60
2018-06-22T18:01:35.595Z,34.67
2018-06-22T18:03:38.277Z,34.30
2018-06-22T18:05:41.463Z,34.10
2018-06-22T18:07:44.702Z,33.50
2018-06-22T18:09:47.283Z,33.37
2018-06-22T18:11:50.758Z,33.97
2018-06-22T18:13:53.844Z,34.70
2018-06-22T18:15:56.886Z,34.17
2018-06-22T18:18:00.368Z,34.23
2018-06-22T18:20:02.966Z,37.43
2018-06-22T18:22:05.841Z,37.20
2018-06-22T18:24:08.796Z,35.40
2018-06-22T18:26:11.752Z,36.10
2018-06-22T18:28:14.473Z,36.47
2018-06-22T18:30:17.158Z,35.63
2018-06-22T18:32:20.324Z,37.90
2018-06-22T18:34:22.940Z,35.83
2018-06-22T18:36:25.855Z,36.57
2018-06-22T18:38:28.865Z,36.93
2018-06-22T18:40:31.535Z,38.33
2018-06-22T18:42:34.931Z,39.53
2018-06-22T18:44:37.535Z,35.93
2018-06-22T18:46:40.793Z,37.10
2018-06-22T18:48:43.682Z,34.60
2018-06-22T18:50:46.338Z,38.70
2018-06-22T18:52:51.752Z,38.03
2018-06-22T18:54:54.521Z,36.00
2018-06-22T18:56:57.318Z,38.07
2018-06-22T18:59:00.828Z,37.73
2018-06-22T19:01:03.366Z,38.60
2018-06-22T19:03:06.172Z,37.87
2018-06-22T19:05:08.937Z,39.53
2018-06-22T19:07:11.413Z,37.00
2018-06-22T19:09:13.931Z,36.80
2018-06-22T19:11:16.746Z,35.93
2018-06-22T19:13:19.533Z,34.80
2018-06-22T19:15:22.642Z,34.00
2018-06-22T19:17:25.604Z,34.90
2018-06-22T19:19:28.667Z,34.23
2018-06-22T19:21:31.959Z,32.73
2018-06-22T19:23:35.102Z,30.93
2018-06-22T19:25:37.711Z,31.70
2018-06-22T19:27:40.303Z,29.93
2018-06-22T19:29:43.029Z,30.77
2018-06-22T19:31:45.887Z,32.67
2018-06-22T19:33:48.752Z,30.70
2018-06-22T19:35:51.717Z,29.17
2018-06-22T19:37:55.478Z,32.40
2018-06-22T19:39:58.818Z,29.83
2018-06-22T19:42:01.497Z,27.90
2018-06-22T19:44:04.414Z,30.47
2018-06-22T19:46:07.426Z,29.57
2018-06-22T19:48:10.633Z,28.60
2018-06-22T19:50:13.476Z,30.57
2018-06-22T19:52:16.306Z,27.03
2018-06-22T19:54:19.012Z,28.47
2018-06-22T19:56:22.261Z,28.30
2018-06-22T19:58:25.072Z,27.80
2018-06-22T20:00:27.660Z,27.70
2018-06-22T20:02:31.294Z,26.07
2018-06-22T20:04:34.141Z,25.70
2018-06-22T20:06:37.370Z,25.13
2018-06-22T20:08:40.411Z,24.50
2018-06-22T20:10:43.112Z,26.70
2018-06-22T20:12:45.853Z,25.53
2018-06-22T20:14:48.632Z,24.60
2018-06-22T20:16:51.529Z,25.93
2018-06-22T20:18:54.293Z,22.97
2018-06-22T20:20:57.060Z,23.97
2018-06-22T20:23:00.275Z,23.40
2018-06-22T20:25:02.953Z,25.03
2018-06-22T20:27:06.030Z,22.05
2018-06-22T20:29:08.888Z,24.47
2018-06-22T20:31:11.714Z,22.20
2018-06-22T20:33:14.810Z,25.53
2018-06-22T20:35:17.651Z,25.27
2018-06-22T20:37:20.771Z,24.63
2018-06-22T20:39:23.903Z,23.10
2018-06-22T20:41:26.720Z,24.17
2018-06-22T20:43:29.532Z,25.50
2018-06-22T20:45:32.290Z,24.40
2018-06-22T20:47:35.288Z,23.73
2018-06-22T20:49:38.135Z,24.03
2018-06-22T20:51:40.807Z,23.62
2018-06-22T20:53:43.582Z,23.43
2018-06-22T20:55:46.878Z,24.33
2018-06-22T20:57:49.583Z,23.20
2018-06-22T20:59:52.731Z,24.70
2018-06-22T21:01:55.639Z,21.83
2018-06-22T21:03:58.727Z,22.23
2018-06-22T21:06:01.720Z,22.77
2018-06-22T21:08:04.847Z,22.83
2018-06-22T21:10:07.805Z,22.83
2018-06-22T21:12:10.966Z,22.50
2018-06-22T21:14:14.078Z,22.10
2018-06-22T21:16:17.044Z,20.60
2018-06-22T21:18:19.802Z,22.90
2018-06-22T21:20:22.885Z,19.90
2018-06-22T21:22:25.971Z,21.13
2018-06-22T21:24:29.210Z,18.40
2018-06-22T21:26:31.832Z,18.87
2018-06-22T21:28:35.592Z,18.75
2018-06-22T21:30:38.950Z,22.50
2018-06-22T21:32:42.152Z,19.23
2018-06-22T21:34:45.924Z,19.07
2018-06-22T21:36:50.248Z,19.00
2018-06-22T21:38:53.431Z,20.90
2018-06-22T21:40:57.753Z,19.27
2018-06-22T21:43:00.658Z,18.17
2018-06-22T21:45:04.218Z,19.30
2018-06-22T21:47:07.059Z,17.60
2018-06-22T21:49:10.004Z,17.83
2018-06-22T21:51:13.409Z,19.27
2018-06-22T21:53:16.386Z,18.90
2018-06-22T21:55:19.765Z,17.70
2018-06-22T21:57:23.033Z,17.00
2018-06-22T21:59:26.218Z,18.60
2018-06-22T22:01:29.429Z,18.57
2018-06-22T22:03:32.423Z,19.03
2018-06-22T22:05:35.215Z,17.33
2018-06-22T22:07:38.466Z,19.07
2018-06-22T22:09:41.563Z,22.70
2018-06-22T22:11:45.051Z,18.20
2018-06-22T22:13:48.858Z,18.90
2018-06-22T22:15:52.156Z,18.07
2018-06-22T22:17:56.049Z,17.30
2018-06-22T22:19:59.447Z,17.53
2018-06-22T22:22:02.744Z,18.03
2018-06-22T22:24:06.216Z,17.60
2018-06-22T22:26:10.845Z,18.83
2018-06-22T22:28:14.273Z,17.07
2018-06-22T22:30:17.835Z,17.63
2018-06-22T22:32:21.029Z,16.33
2018-06-22T22:34:24.482Z,16.77
2018-06-22T22:36:28.015Z,16.93
2018-06-22T22:38:31.425Z,17.33
2018-06-22T22:40:34.530Z,17.47
2018-06-22T22:42:37.569Z,17.20
2018-06-22T22:44:41.297Z,18.63
2018-06-22T22:46:44.597Z,17.77
2018-06-22T22:48:48.465Z,16.40
2018-06-22T22:50:51.867Z,17.93
2018-06-22T22:52:55.104Z,17.00
2018-06-22T22:54:58.858Z,15.90
2018-06-22T22:57:02.190Z,17.77
2018-06-22T22:59:05.228Z,18.27
2018-06-22T23:01:08.649Z,17.53
2018-06-22T23:03:12.017Z,18.20
2018-06-22T23:05:15.630Z,18.70
2018-06-22T23:07:18.919Z,21.90
2018-06-22T23:11:56.130Z,19.10
2018-06-22T23:13:59.960Z,19.57
2018-06-22T23:16:03.510Z,18.20
2018-06-22T23:18:08.388Z,19.83
2018-06-22T23:20:11.639Z,24.83
2018-06-22T23:22:14.910Z,36.27
2018-06-22T23:24:18.407Z,50.93
2018-06-22T23:26:22.013Z,41.90
2018-06-22T23:28:25.403Z,35.30
2018-06-22T23:30:28.616Z,36.43
2018-06-22T23:32:31.881Z,33.37
2018-06-22T23:34:35.318Z,28.40
2018-06-22T23:36:38.587Z,27.33
2018-06-22T23:38:42.187Z,30.90
2018-06-22T23:40:45.448Z,29.07
2018-06-22T23:42:49.231Z,25.57
2018-06-22T23:44:52.595Z,35.47
2018-06-22T23:46:55.764Z,28.30
2018-06-22T23:48:59.666Z,31.03
2018-06-22T23:51:03.738Z,32.30
2018-06-22T23:53:06.965Z,26.83
2018-06-22T23:55:10.877Z,27.33
2018-06-22T23:57:15.273Z,25.03
2018-06-22T23:59:18.871Z,22.33
